map of PTP home
PTP - Airport
Location
City:  Pointe--Pitre, Guadeloupe
Name:Le Raizet
ICAO:TFFR
IATA:PTP

Details
Type:Airport (Aerodrome, Airfield)
Use:Public/Civil
Latitude:1615'51"N (16.264167)
Longitude:6131'33"W (-61.525832)
Elevation:35 ft (11 m)
Variation:14.87W (WMM2015 magnetic declination)
-0.03 annual change
Runways:1
Longest:10253 × 148 ft (3125 × 45 m), paved

Time
Time Zone:UTC-4
Local Time:

Weather
METAR:TFFR 200530Z AUTO 13005KT 9999 FEW024 OVC210 25/22 Q1016

Related Locations
Nearby:
Farthest:BME: 12171 mi / 19587 km
Broome [Intl], WA, AU

Find:

   beyond  
but within

Other Information
Maps:
NOTAMs:
Links:
Sources:

  
  • flag of Guadeloupe
  

Sectional Chart

Flight Planning
at skyvector.com

Satellite Image

Google Maps Satellite view

 

Copyright © 2004-2018 Karl L. Swartz. All rights reserved.
The Great Circle Mapper name and logo are trademarks of the Great Circle Mapper.
All other trademarks mentioned herein belong to their respective owners.
Please see credits for attibutions and further copyright information.

  Follow gcmap on Facebook Follow gcmap on Twitter Follow gcmap on Google+ GCmap on LinkedIn

hCard Microformat

Geo Microformat